Alexandria, Alabama
Current Conditions -  °F | °C
As of 1:53 PM on Friday 24 Oct 2014 (Local Time) from KANB Reporting Station
Clear Clear  
Wind Chill: 72°   Ceiling: Unl
Heat Index: 72°   Visibility: 10mi
Dew Point: 42°   Wind: 3mph
Humidity: 34%   Direction: NA
Pressure: 30.04"   Gusts: NA
Location:  33.77°N, 85.89°W
Report Text: KANB 241853Z AUTO VRB03KT 10SM CLR 22/06 A3004 RMK AO2 SLP170 T02220056
Loading
Personal Weather Stations






























Interactive Weather Map New forecast layout! Learn more

10-Day Weather Forecast

Advertisements
Track Severe Weather on mobile